Time;durP1;ratioP1;P1;durP2;ratioP2;P2;SDS_P1;SDS_P2;PMS_P1;PMS_P2;Temp;Humidity;BMP_temperature;BMP_pressure;BME280_temperature;BME280_humidity;BME280_pressure;Samples;Min_cycle;Max_cycle;Signal;HPM_P1;HPM_P2
2021/06/13 00:02:24;;;;;;;3.07;2.87;;;21.70;99.90;;;;;;5029590;28;20456;-55
2021/06/13 00:04:51;;;;;;;2.90;2.70;;;21.70;99.90;;;;;;5020181;28;20452;-55
2021/06/13 00:07:17;;;;;;;3.67;3.20;;;21.50;99.90;;;;;;5023846;28;20457;-55
2021/06/13 00:09:44;;;;;;;3.60;3.30;;;21.50;99.90;;;;;;5013764;28;20453;-55
2021/06/13 00:12:11;;;;;;;3.63;3.33;;;21.50;99.90;;;;;;5051770;22;21000;-50
2021/06/13 00:14:38;;;;;;;3.47;3.17;;;21.50;99.90;;;;;;5033389;28;20518;-49
2021/06/13 00:17:06;;;;;;;4.13;3.73;;;21.50;99.90;;;;;;5033172;28;20444;-50
2021/06/13 00:19:33;;;;;;;4.73;3.40;;;21.20;99.90;;;;;;5033471;28;20453;-50
2021/06/13 00:21:59;;;;;;;3.43;3.20;;;21.20;99.90;;;;;;5025342;28;20986;-50
2021/06/13 00:24:26;;;;;;;4.30;4.00;;;21.30;99.90;;;;;;5013588;28;20441;-50
2021/06/13 00:26:52;;;;;;;3.97;3.57;;;21.30;99.90;;;;;;5030031;28;20977;-50
2021/06/13 00:29:19;;;;;;;3.93;3.63;;;21.30;99.90;;;;;;5033100;28;20898;-50
2021/06/13 00:31:45;;;;;;;3.53;3.23;;;21.30;99.90;;;;;;5033261;28;20559;-50
2021/06/13 00:34:13;;;;;;;4.03;3.73;;;21.40;99.90;;;;;;5032818;28;20452;-49
2021/06/13 00:36:40;;;;;;;4.37;3.40;;;21.50;99.90;;;;;;5023508;28;20460;-49
2021/06/13 00:39:06;;;;;;;3.43;3.17;;;21.60;99.90;;;;;;5013318;28;20449;-50
2021/06/13 00:41:33;;;;;;;3.70;3.40;;;21.50;99.90;;;;;;5012917;28;20477;-50
2021/06/13 00:43:59;;;;;;;3.67;3.30;;;21.50;99.90;;;;;;5026895;28;20460;-50
2021/06/13 00:46:28;;;;;;;4.33;3.20;;;21.60;99.90;;;;;;5032555;28;20449;-49
2021/06/13 00:48:55;;;;;;;3.97;3.60;;;21.50;99.90;;;;;;5032090;28;20445;-50
2021/06/13 00:51:23;;;;;;;3.50;3.20;;;21.60;99.90;;;;;;5032712;28;20464;-50
2021/06/13 00:53:49;;;;;;;3.50;3.30;;;21.60;99.90;;;;;;5032800;28;20444;-50
2021/06/13 00:56:16;;;;;;;3.40;3.10;;;21.70;99.90;;;;;;5032627;28;20485;-49
2021/06/13 00:58:43;;;;;;;3.60;3.30;;;21.70;99.90;;;;;;5028482;28;20514;-50
2021/06/13 01:01:09;;;;;;;3.63;3.33;;;21.60;99.90;;;;;;5032455;28;20546;-50
2021/06/13 01:03:36;;;;;;;4.13;3.63;;;21.60;99.90;;;;;;5032270;28;20453;-50
2021/06/13 01:06:03;;;;;;;4.10;3.70;;;21.60;99.90;;;;;;5032264;28;20494;-50
2021/06/13 01:08:42;;;;;;;4.90;4.07;;;21.40;99.90;;;;;;5023997;28;21009;-50
2021/06/13 01:11:15;;;;;;;3.93;3.63;;;21.50;99.90;;;;;;5012759;28;20477;-50
2021/06/13 01:13:49;;;;;;;4.30;3.90;;;21.50;99.90;;;;;;5018789;28;20834;-51
2021/06/13 01:16:29;;;;;;;5.27;4.33;;;21.20;99.90;;;;;;5032270;28;20562;-51
2021/06/13 01:19:00;;;;;;;4.77;4.33;;;21.20;99.90;;;;;;5032415;28;20444;-50
2021/06/13 01:21:33;;;;;;;3.73;3.43;;;21.30;99.90;;;;;;5029772;28;20918;-49
2021/06/13 01:24:19;;;;;;;4.13;3.83;;;21.20;99.90;;;;;;5018277;28;20454;-50
2021/06/13 01:27:21;;;;;;;4.60;4.20;;;21.10;99.90;;;;;;5012589;28;20445;-50
2021/06/13 01:29:50;;;;;;;4.33;4.03;;;20.90;99.90;;;;;;5026938;28;20538;-49
2021/06/13 01:32:22;;;;;;;4.50;4.10;;;21.00;99.90;;;;;;5031683;28;20522;-50
2021/06/13 01:34:53;;;;;;;3.90;3.50;;;21.10;99.90;;;;;;5031635;28;20484;-50
2021/06/13 01:37:22;;;;;;;4.93;3.70;;;21.10;99.90;;;;;;5014353;28;20450;-50
2021/06/13 01:39:54;;;;;;;4.57;4.17;;;21.20;99.90;;;;;;5012188;28;20460;-50
2021/06/13 01:42:21;;;;;;;4.63;4.33;;;21.20;99.90;;;;;;5021024;28;20479;-50
2021/06/13 01:44:57;;;;;;;6.30;3.70;;;21.00;99.90;;;;;;5031884;28;20502;-50
2021/06/13 01:47:25;;;;;;;5.27;4.60;;;21.10;99.90;;;;;;5018174;28;20539;-50
2021/06/13 01:49:54;;;;;;;4.27;3.87;;;21.10;99.90;;;;;;5031943;28;20863;-50
2021/06/13 01:52:22;;;;;;;3.83;3.53;;;21.10;99.90;;;;;;5031486;28;20464;-50
2021/06/13 01:54:51;;;;;;;4.40;4.00;;;21.10;99.90;;;;;;5031692;28;20480;-50
2021/06/13 01:57:18;;;;;;;4.40;4.10;;;21.20;99.90;;;;;;5029799;28;20449;-49
2021/06/13 01:59:45;;;;;;;4.23;3.90;;;21.30;99.90;;;;;;5019492;28;20449;-49
2021/06/13 02:02:14;;;;;;;4.20;3.80;;;21.30;99.90;;;;;;5021577;28;20469;-49
2021/06/13 02:04:42;;;;;;;4.47;4.07;;;21.40;99.90;;;;;;5031788;28;20942;-50
2021/06/13 02:07:10;;;;;;;4.20;3.80;;;21.30;99.90;;;;;;5019650;28;20540;-51
2021/06/13 02:09:38;;;;;;;4.10;3.73;;;21.30;99.90;;;;;;5011808;28;20453;-50
2021/06/13 02:12:06;;;;;;;5.60;3.87;;;20.90;99.90;;;;;;5026591;28;20476;-51
2021/06/13 02:14:34;;;;;;;4.23;3.93;;;20.90;99.90;;;;;;5031011;28;20456;-50
2021/06/13 02:17:02;;;;;;;4.13;3.80;;;20.90;99.90;;;;;;5031440;28;20464;-51
2021/06/13 02:19:32;;;;;;;4.40;4.00;;;21.00;99.90;;;;;;5030095;28;20456;-48
2021/06/13 02:22:00;;;;;;;4.87;4.27;;;21.10;99.90;;;;;;5011500;28;20466;-49
2021/06/13 02:24:29;;;;;;;4.47;4.17;;;21.30;99.90;;;;;;5014026;28;20869;-49
2021/06/13 02:26:56;;;;;;;5.70;4.20;;;21.30;99.90;;;;;;5031343;28;20463;-49
2021/06/13 02:29:25;;;;;;;5.20;4.30;;;21.10;99.90;;;;;;5030771;28;20452;-49
2021/06/13 02:31:54;;;;;;;4.13;3.83;;;21.10;99.90;;;;;;5031041;28;20522;-49
2021/06/13 02:34:23;;;;;;;4.07;3.67;;;21.10;99.90;;;;;;5029963;28;20440;-49
2021/06/13 02:36:53;;;;;;;4.30;3.90;;;21.30;99.90;;;;;;5030787;28;20498;-50
2021/06/13 02:39:21;;;;;;;6.03;4.33;;;21.30;99.90;;;;;;5031422;28;20811;-49
2021/06/13 02:41:48;;;;;;;4.27;3.97;;;21.30;99.90;;;;;;5031050;28;20471;-49
2021/06/13 02:44:15;;;;;;;4.10;3.70;;;21.20;99.90;;;;;;5013298;28;20810;-49
2021/06/13 02:46:42;;;;;;;4.63;4.10;;;21.30;99.90;;;;;;5019224;28;20512;-49
2021/06/13 02:49:10;;;;;;;4.10;3.80;;;21.20;99.90;;;;;;5015767;28;20444;-49
2021/06/13 02:51:40;;;;;;;4.30;4.00;;;21.20;99.90;;;;;;5017143;28;20474;-49
2021/06/13 02:54:10;;;;;;;4.80;4.40;;;21.20;99.90;;;;;;5014753;28;20922;-49
2021/06/13 02:56:43;;;;;;;4.90;4.27;;;21.20;99.90;;;;;;5031269;28;20496;-49
2021/06/13 02:59:21;;;;;;;5.00;4.03;;;21.20;99.90;;;;;;5028978;28;20456;-49
2021/06/13 03:01:51;;;;;;;4.50;4.10;;;21.20;99.90;;;;;;5030783;28;21179;-49
2021/06/13 03:04:19;;;;;;;4.97;4.20;;;21.10;99.90;;;;;;5030998;28;20530;-49
2021/06/13 03:06:46;;;;;;;6.20;4.67;;;21.20;99.90;;;;;;5031041;28;20449;-49
2021/06/13 03:09:16;;;;;;;6.90;4.30;;;21.10;99.90;;;;;;5012571;28;20477;-49
2021/06/13 03:11:42;;;;;;;4.43;4.03;;;20.70;99.90;;;;;;5016219;28;20484;-49
2021/06/13 03:14:11;;;;;;;4.33;4.03;;;20.70;99.90;;;;;;5034520;28;20459;-49
2021/06/13 03:16:39;;;;;;;4.07;3.77;;;20.60;99.90;;;;;;5034030;28;20484;-49
2021/06/13 03:19:07;;;;;;;7.13;4.50;;;20.60;99.90;;;;;;5034553;28;20448;-49
2021/06/13 03:21:34;;;;;;;4.97;4.57;;;20.70;99.90;;;;;;5033562;28;20496;-49
2021/06/13 03:24:01;;;;;;;4.80;4.40;;;20.60;99.90;;;;;;5031993;28;20830;-49
2021/06/13 03:26:30;;;;;;;4.77;4.27;;;20.50;99.90;;;;;;5034544;28;20452;-49
2021/06/13 03:29:00;;;;;;;4.93;4.47;;;20.60;99.90;;;;;;5033315;28;20459;-49
2021/06/13 03:31:29;;;;;;;5.80;4.10;;;20.70;99.90;;;;;;5014169;28;21061;-49
2021/06/13 03:33:57;;;;;;;5.20;4.70;;;20.70;99.90;;;;;;5033894;28;20455;-49
2021/06/13 03:36:25;;;;;;;5.03;4.63;;;20.80;99.90;;;;;;5020117;28;20482;-48
2021/06/13 03:38:53;;;;;;;4.87;4.43;;;20.60;99.90;;;;;;5027205;28;20456;-49
2021/06/13 03:41:22;;;;;;;7.80;5.43;;;20.50;99.90;;;;;;5033948;28;20503;-49
2021/06/13 03:43:52;;;;;;;5.23;4.70;;;20.20;99.90;;;;;;5034230;28;20502;-49
2021/06/13 03:46:20;;;;;;;5.43;4.93;;;20.30;99.90;;;;;;5034007;28;20451;-49
2021/06/13 03:48:49;;;;;;;5.73;4.87;;;20.30;99.90;;;;;;5033694;28;20461;-49
2021/06/13 03:51:18;;;;;;;4.80;4.40;;;20.20;99.90;;;;;;5032686;28;20472;-48
2021/06/13 03:53:53;;;;;;;5.37;4.87;;;20.20;99.90;;;;;;5033705;28;20449;-49
2021/06/13 03:56:25;;;;;;;5.10;4.60;;;20.10;99.90;;;;;;5031732;28;20488;-49
2021/06/13 03:58:54;;;;;;;4.80;4.40;;;20.20;99.90;;;;;;5013937;28;20862;-49
2021/06/13 04:01:24;;;;;;;7.27;5.50;;;20.10;99.90;;;;;;5013729;28;20473;-49
2021/06/13 04:03:53;;;;;;;5.30;4.80;;;20.10;99.90;;;;;;5014898;28;20453;-49
2021/06/13 04:06:25;;;;;;;5.80;5.30;;;20.10;99.90;;;;;;5019185;28;20453;-49
2021/06/13 04:08:53;;;;;;;5.80;5.17;;;20.10;99.90;;;;;;5013989;28;20500;-49
2021/06/13 04:11:22;;;;;;;5.53;4.70;;;20.00;99.90;;;;;;5018876;28;20476;-49
2021/06/13 04:13:50;;;;;;;5.53;5.03;;;20.00;99.90;;;;;;5032722;28;20506;-49
2021/06/13 04:16:25;;;;;;;6.30;5.70;;;19.80;99.90;;;;;;5023295;28;20544;-49
2021/06/13 04:18:52;;;;;;;5.37;4.87;;;19.80;99.90;;;;;;5013808;28;20464;-49
2021/06/13 04:21:20;;;;;;;5.13;4.63;;;19.70;99.90;;;;;;5018048;28;20635;-48
2021/06/13 04:23:49;;;;;;;16.83;7.33;;;19.70;99.90;;;;;;5032547;28;20451;-49
2021/06/13 04:26:18;;;;;;;5.67;5.17;;;19.80;99.90;;;;;;5033088;28;20478;-49
2021/06/13 04:28:46;;;;;;;5.20;4.80;;;19.70;99.90;;;;;;5031660;28;20448;-49
2021/06/13 04:31:15;;;;;;;9.50;4.80;;;19.80;99.90;;;;;;5016337;28;20474;-48
2021/06/13 04:33:45;;;;;;;6.30;5.00;;;19.80;99.90;;;;;;5028789;28;20977;-49
2021/06/13 04:36:13;;;;;;;5.23;4.73;;;19.70;99.90;;;;;;5013529;28;20492;-48
2021/06/13 04:38:41;;;;;;;5.03;4.60;;;19.80;99.90;;;;;;5025219;28;20456;-48
2021/06/13 04:41:09;;;;;;;8.40;5.57;;;19.70;99.90;;;;;;5013157;28;20473;-49
2021/06/13 04:43:38;;;;;;;5.70;5.20;;;19.70;99.90;;;;;;5012886;28;20961;-49
2021/06/13 04:46:05;;;;;;;6.00;4.73;;;19.70;99.90;;;;;;5022554;28;20444;-49
2021/06/13 04:48:33;;;;;;;6.37;5.73;;;19.70;99.90;;;;;;5031421;28;20460;-49
2021/06/13 04:51:03;;;;;;;6.07;5.47;;;19.60;99.90;;;;;;5031081;28;20460;-48
2021/06/13 04:54:07;;;;;;;6.60;5.80;;;19.60;99.90;;;;;;5029329;28;20460;-49
2021/06/13 04:56:41;;;;;;;5.37;4.83;;;19.70;99.90;;;;;;5002281;28;21006;-49
2021/06/13 04:59:08;;;;;;;6.00;5.40;;;19.90;99.90;;;;;;5031372;28;20445;-49
2021/06/13 05:01:35;;;;;;;6.13;5.53;;;20.10;99.90;;;;;;5021501;28;20474;-49
2021/06/13 05:04:03;;;;;;;5.47;4.97;;;20.30;99.90;;;;;;5017038;28;20863;-49
2021/06/13 05:06:35;;;;;;;5.67;5.07;;;20.70;99.90;;;;;;5017118;28;20503;-49
2021/06/13 05:09:03;;;;;;;7.47;5.43;;;21.10;99.90;;;;;;5017111;28;20469;-49
2021/06/13 05:11:33;;;;;;;7.73;5.63;;;21.30;99.90;;;;;;5012314;28;20531;-48
2021/06/13 05:14:00;;;;;;;5.90;5.40;;;21.10;99.90;;;;;;5012906;28;20874;-49
2021/06/13 05:16:31;;;;;;;6.97;5.47;;;21.40;99.90;;;;;;5012680;28;20481;-48
2021/06/13 05:18:59;;;;;;;6.63;5.60;;;21.80;99.90;;;;;;5012609;28;20954;-48
2021/06/13 05:21:26;;;;;;;5.57;5.07;;;22.20;99.90;;;;;;5012307;28;21006;-51
2021/06/13 05:23:54;;;;;;;6.40;5.40;;;22.90;99.90;;;;;;5013849;28;20476;-50
2021/06/13 05:26:21;;;;;;;6.87;5.30;;;22.70;99.90;;;;;;5013563;28;20945;-50
2021/06/13 05:28:48;;;;;;;6.63;5.90;;;23.40;99.90;;;;;;5019227;28;20479;-49
2021/06/13 05:31:15;;;;;;;6.37;5.77;;;23.00;99.90;;;;;;5028917;28;20472;-50
2021/06/13 05:33:42;;;;;;;6.40;5.67;;;22.80;99.90;;;;;;5030546;28;20831;-50
2021/06/13 05:36:10;;;;;;;6.20;5.60;;;22.60;99.90;;;;;;5026082;28;20538;-51
2021/06/13 05:38:40;;;;;;;6.33;5.73;;;22.70;99.90;;;;;;5019417;28;20453;-49
2021/06/13 05:41:09;;;;;;;9.80;5.53;;;22.90;99.90;;;;;;5013658;28;20469;-48
2021/06/13 05:43:36;;;;;;;10.20;6.00;;;23.10;99.90;;;;;;5020747;28;20446;-49
2021/06/13 05:46:03;;;;;;;6.33;5.73;;;23.20;99.90;;;;;;5029379;28;20491;-49
2021/06/13 05:48:32;;;;;;;6.47;5.87;;;23.20;99.90;;;;;;5030770;28;20459;-49
2021/06/13 05:50:59;;;;;;;7.97;6.63;;;22.70;99.90;;;;;;5030707;28;20840;-49
2021/06/13 05:53:27;;;;;;;11.40;7.40;;;21.50;99.90;;;;;;5030280;28;20445;-49
2021/06/13 05:55:54;;;;;;;8.07;6.10;;;21.10;99.90;;;;;;5026830;28;20504;-49
2021/06/13 05:58:23;;;;;;;6.90;6.20;;;21.20;99.90;;;;;;5030684;28;20526;-49
2021/06/13 06:00:51;;;;;;;7.90;7.10;;;21.50;99.90;;;;;;5030816;28;20865;-49
2021/06/13 06:03:18;;;;;;;7.00;6.10;;;21.40;99.90;;;;;;5030352;28;20531;-49
2021/06/13 06:05:45;;;;;;;9.20;6.60;;;21.30;99.90;;;;;;5028655;28;20946;-49
2021/06/13 06:08:12;;;;;;;7.00;6.27;;;22.20;99.90;;;;;;5030327;28;20448;-48
2021/06/13 06:10:39;;;;;;;8.15;5.70;;;22.20;99.90;;;;;;5037311;22;20858;-56
2021/06/13 06:13:06;;;;;;;7.33;6.63;;;21.70;99.90;;;;;;4991301;28;20498;-57
2021/06/13 06:15:37;;;;;;;7.57;6.27;;;21.40;99.90;;;;;;4993610;28;21013;-57
2021/06/13 06:18:05;;;;;;;8.40;6.60;;;21.50;99.90;;;;;;5000474;28;20446;-55
2021/06/13 06:20:33;;;;;;;9.43;7.20;;;21.40;99.90;;;;;;5010589;28;21129;-57
2021/06/13 06:23:01;;;;;;;9.70;6.60;;;20.90;99.90;;;;;;4996575;28;21054;-55
2021/06/13 06:25:28;;;;;;;7.70;6.30;;;20.60;99.90;;;;;;4990710;28;20978;-54
2021/06/13 06:27:56;;;;;;;8.03;6.70;;;20.60;99.90;;;;;;4990731;28;20518;-56
2021/06/13 06:30:24;;;;;;;7.40;6.17;;;20.50;99.90;;;;;;4999446;28;20449;-55
2021/06/13 06:32:53;;;;;;;10.00;7.00;;;20.70;99.90;;;;;;5002735;28;20466;-55
2021/06/13 06:35:20;;;;;;;9.07;7.17;;;20.90;99.90;;;;;;4992400;28;20450;-55
2021/06/13 06:37:48;;;;;;;8.13;5.90;;;21.00;99.90;;;;;;4994853;28;20492;-55
2021/06/13 06:40:15;;;;;;;8.13;6.73;;;21.10;99.90;;;;;;4988413;28;20463;-55
2021/06/13 06:42:43;;;;;;;9.73;6.80;;;21.00;99.90;;;;;;4990658;28;20899;-55
2021/06/13 06:45:13;;;;;;;6.60;5.90;;;20.60;99.90;;;;;;4993359;28;20838;-55
2021/06/13 06:47:40;;;;;;;8.20;6.83;;;20.50;99.90;;;;;;4998260;28;20508;-55
2021/06/13 06:50:12;;;;;;;8.10;6.90;;;20.50;99.90;;;;;;4995774;28;20446;-55
2021/06/13 06:52:39;;;;;;;8.97;7.10;;;20.40;99.90;;;;;;5002335;28;20469;-55
2021/06/13 06:55:08;;;;;;;9.43;6.40;;;20.50;99.90;;;;;;4995405;28;20473;-55
2021/06/13 06:57:35;;;;;;;9.40;7.20;;;20.50;99.90;;;;;;4994701;28;20498;-54
2021/06/13 07:00:03;;;;;;;8.60;7.07;;;20.40;99.90;;;;;;4993198;28;20461;-55
2021/06/13 07:02:30;;;;;;;9.87;7.60;;;20.40;99.90;;;;;;4994851;28;20501;-55
2021/06/13 07:04:58;;;;;;;8.53;7.30;;;20.00;99.90;;;;;;5004691;28;20529;-54
2021/06/13 07:07:26;;;;;;;7.80;7.00;;;20.00;99.90;;;;;;5002344;28;20462;-55
2021/06/13 07:09:53;;;;;;;8.67;7.13;;;20.00;99.90;;;;;;4999777;28;20451;-54
2021/06/13 07:12:20;;;;;;;8.97;7.47;;;19.90;99.90;;;;;;4990147;28;20486;-55
2021/06/13 07:14:48;;;;;;;8.43;7.57;;;20.10;99.90;;;;;;5027026;28;20453;-55
2021/06/13 07:17:15;;;;;;;11.77;7.93;;;20.10;99.90;;;;;;5012237;28;20482;-55
2021/06/13 07:19:42;;;;;;;8.07;6.87;;;20.30;99.90;;;;;;4995446;28;20454;-55
2021/06/13 07:22:09;;;;;;;10.67;7.50;;;20.40;99.90;;;;;;4995117;28;20533;-55
2021/06/13 07:24:37;;;;;;;9.10;7.40;;;20.70;99.90;;;;;;4994598;28;20537;-55
2021/06/13 07:27:05;;;;;;;14.03;7.70;;;20.80;99.90;;;;;;4994995;28;20454;-54
2021/06/13 07:29:32;;;;;;;10.10;8.33;;;21.10;99.90;;;;;;4988630;28;20455;-54
2021/06/13 07:32:00;;;;;;;10.87;7.20;;;21.70;99.90;;;;;;4993643;28;20482;-55
2021/06/13 07:34:27;;;;;;;9.57;7.20;;;22.40;99.90;;;;;;4994907;28;20458;-55
2021/06/13 07:36:54;;;;;;;9.60;6.80;;;22.80;99.90;;;;;;4994600;28;21000;-54
2021/06/13 07:39:21;;;;;;;7.97;7.17;;;23.50;99.90;;;;;;4994861;28;20458;-55
2021/06/13 07:41:50;;;;;;;8.20;6.80;;;24.20;99.90;;;;;;4994129;28;20855;-55
2021/06/13 07:44:18;;;;;;;8.53;7.70;;;24.10;99.90;;;;;;4993803;28;20798;-55
2021/06/13 07:46:45;;;;;;;8.57;7.43;;;23.50;99.90;;;;;;4994142;28;20512;-55
2021/06/13 07:49:12;;;;;;;8.30;7.50;;;23.00;99.90;;;;;;4994689;28;20450;-55
2021/06/13 07:51:39;;;;;;;11.80;7.70;;;23.20;99.90;;;;;;4994031;28;20498;-55
2021/06/13 07:54:06;;;;;;;9.00;7.70;;;23.40;99.90;;;;;;4993221;28;20451;-54
2021/06/13 07:56:34;;;;;;;8.20;6.83;;;22.80;99.90;;;;;;4999187;28;20899;-54
2021/06/13 07:59:02;;;;;;;9.13;7.57;;;22.90;99.90;;;;;;5010505;28;20449;-54
2021/06/13 08:01:29;;;;;;;11.83;7.83;;;22.80;99.90;;;;;;5003369;28;20462;-54
2021/06/13 08:03:56;;;;;;;8.10;7.30;;;22.40;99.90;;;;;;4991585;28;20536;-54
2021/06/13 08:06:23;;;;;;;9.43;7.60;;;22.50;99.90;;;;;;5008857;28;20452;-54
2021/06/13 08:08:50;;;;;;;9.77;7.23;;;22.60;99.90;;;;;;4997126;28;20478;-54
2021/06/13 08:11:18;;;;;;;8.53;7.37;;;22.50;99.90;;;;;;4991214;28;20999;-53
2021/06/13 08:13:45;;;;;;;9.20;7.97;;;22.50;99.90;;;;;;4993333;28;20455;-54
2021/06/13 08:16:13;;;;;;;8.43;7.63;;;22.60;99.90;;;;;;4993679;28;20454;-56
2021/06/13 08:18:40;;;;;;;10.13;8.07;;;22.60;99.90;;;;;;4991073;28;20920;-55
2021/06/13 08:21:07;;;;;;;12.20;8.60;;;22.60;99.90;;;;;;4989756;28;20487;-55
2021/06/13 08:23:35;;;;;;;10.40;7.70;;;23.00;99.90;;;;;;4996614;28;20458;-55
2021/06/13 08:26:02;;;;;;;9.93;7.80;;;22.70;99.90;;;;;;5007400;28;20486;-56
2021/06/13 08:28:30;;;;;;;8.20;7.07;;;23.00;99.90;;;;;;4995594;28;20462;-56
2021/06/13 08:30:57;;;;;;;10.70;8.40;;;24.40;99.90;;;;;;4999502;28;20547;-55
2021/06/13 08:33:26;;;;;;;9.00;7.40;;;24.30;99.90;;;;;;4991733;28;20443;-56
2021/06/13 08:35:53;;;;;;;9.60;7.57;;;24.70;99.90;;;;;;4988063;28;20459;-56
2021/06/13 08:38:21;;;;;;;8.70;7.80;;;25.00;99.90;;;;;;4992716;28;20490;-56
2021/06/13 08:40:49;;;;;;;8.03;6.87;;;24.80;99.90;;;;;;4992523;28;20458;-56
2021/06/13 08:43:16;;;;;;;8.43;6.77;;;25.40;99.90;;;;;;4993032;28;20503;-55
2021/06/13 08:45:44;;;;;;;8.50;7.50;;;25.80;99.90;;;;;;4993506;28;20944;-56
2021/06/13 08:48:14;;;;;;;8.60;7.47;;;25.40;99.90;;;;;;4992535;28;20454;-56
2021/06/13 08:50:43;;;;;;;11.93;7.13;;;25.20;99.90;;;;;;4993181;28;20450;-56
2021/06/13 08:53:10;;;;;;;8.50;7.30;;;24.90;99.90;;;;;;4991499;28;20854;-55
2021/06/13 08:55:37;;;;;;;7.73;6.93;;;24.30;99.90;;;;;;4992616;28;20466;-56
2021/06/13 08:58:05;;;;;;;12.73;7.93;;;25.30;99.90;;;;;;4992637;28;20549;-55
2021/06/13 09:00:37;;;;;;;8.23;7.40;;;25.60;99.90;;;;;;4992598;28;20458;-56
2021/06/13 09:03:06;;;;;;;9.07;7.07;;;25.30;99.90;;;;;;4992446;28;20525;-56
2021/06/13 09:05:33;;;;;;;9.77;8.10;;;25.40;99.90;;;;;;4992907;28;20450;-56
2021/06/13 09:08:06;;;;;;;8.60;7.70;;;25.00;99.90;;;;;;4992114;28;20459;-56
2021/06/13 09:10:33;;;;;;;9.87;6.93;;;25.30;99.90;;;;;;4992662;28;20455;-56
2021/06/13 09:13:12;;;;;;;12.03;6.97;;;26.50;99.90;;;;;;4992647;28;20557;-55
2021/06/13 09:15:50;;;;;;;9.20;8.20;;;27.50;99.90;;;;;;4991564;28;20458;-56
2021/06/13 09:18:36;;;;;;;8.70;7.80;;;26.60;99.90;;;;;;4991783;28;20481;-56
2021/06/13 09:21:05;;;;;;;7.53;6.80;;;26.20;99.90;;;;;;4992498;28;20485;-55
2021/06/13 09:23:35;;;;;;;8.07;6.80;;;25.60;99.90;;;;;;4992444;28;20505;-55
2021/06/13 09:26:03;;;;;;;8.17;7.33;;;25.80;99.90;;;;;;4992367;28;20454;-54
2021/06/13 09:28:32;;;;;;;7.23;6.63;;;26.10;99.90;;;;;;4992633;28;20537;-55
2021/06/13 09:31:00;;;;;;;7.53;6.70;;;25.60;99.90;;;;;;4992900;28;20470;-56
2021/06/13 09:33:29;;;;;;;7.70;6.80;;;25.50;99.90;;;;;;4992089;28;20450;-55
2021/06/13 09:36:01;;;;;;;7.70;6.90;;;25.60;99.90;;;;;;4992439;28;20949;-55
2021/06/13 09:38:30;;;;;;;8.13;6.93;;;25.40;99.90;;;;;;4991893;28;20490;-55
2021/06/13 09:41:01;;;;;;;6.70;6.10;;;25.50;99.90;;;;;;4991735;28;20470;-55
2021/06/13 09:43:31;;;;;;;6.73;6.17;;;26.00;99.90;;;;;;5001429;28;20446;-56
2021/06/13 09:46:02;;;;;;;8.03;5.93;;;26.40;99.90;;;;;;5012143;28;20457;-56
2021/06/13 09:48:29;;;;;;;7.03;5.23;;;26.70;99.90;;;;;;4992998;28;20983;-55
2021/06/13 09:50:58;;;;;;;7.00;6.30;;;27.80;99.90;;;;;;4992449;28;20458;-56
2021/06/13 09:53:34;;;;;;;7.50;6.80;;;27.30;99.90;;;;;;4991955;28;20458;-56
2021/06/13 09:56:09;;;;;;;9.43;7.50;;;26.60;99.90;;;;;;4986651;28;20454;-55
2021/06/13 09:58:46;;;;;;;6.43;5.80;;;25.90;99.90;;;;;;4990881;28;20547;-56
2021/06/13 10:01:13;;;;;;;6.80;6.20;;;26.20;99.90;;;;;;4979037;28;20471;-56
2021/06/13 10:03:40;;;;;;;7.40;6.70;;;25.70;99.90;;;;;;4991486;28;20458;-55
2021/06/13 10:06:08;;;;;;;7.50;6.80;;;25.30;99.90;;;;;;4991561;28;20873;-56
2021/06/13 10:08:36;;;;;;;6.63;6.03;;;25.30;99.90;;;;;;4990897;28;20947;-56
2021/06/13 10:11:06;;;;;;;7.93;6.57;;;25.70;99.90;;;;;;4991866;28;20564;-56
2021/06/13 10:13:41;;;;;;;7.40;6.70;;;26.00;99.90;;;;;;4991002;28;20446;-56
2021/06/13 10:16:10;;;;;;;9.97;7.20;;;26.10;99.90;;;;;;4989285;28;20450;-56
2021/06/13 10:18:39;;;;;;;7.00;6.30;;;26.30;99.90;;;;;;4987888;28;20460;-56
2021/06/13 10:21:08;;;;;;;8.70;6.67;;;26.80;99.90;;;;;;4992721;28;20215;-57
2021/06/13 10:23:36;;;;;;;7.27;6.60;;;26.50;99.90;;;;;;4996375;28;20450;-57
2021/06/13 10:26:04;;;;;;;6.40;5.80;;;25.40;99.90;;;;;;4995097;28;20858;-56
2021/06/13 10:28:32;;;;;;;8.60;6.43;;;25.20;99.90;;;;;;4994945;28;20500;-55
2021/06/13 10:30:59;;;;;;;8.40;6.23;;;25.50;99.90;;;;;;4997675;28;20469;-56
2021/06/13 10:33:27;;;;;;;6.97;6.37;;;25.90;99.90;;;;;;5005559;28;20477;-57
2021/06/13 10:35:56;;;;;;;6.17;5.60;;;25.60;99.90;;;;;;4995667;28;20848;-58
2021/06/13 10:38:23;;;;;;;7.10;6.40;;;25.40;99.90;;;;;;4994745;28;20500;-57
2021/06/13 10:40:50;;;;;;;8.63;6.27;;;25.70;99.90;;;;;;4993526;28;20454;-57
2021/06/13 10:43:22;;;;;;;6.57;5.90;;;25.80;99.90;;;;;;4976107;28;20455;-56
2021/06/13 10:45:51;;;;;;;8.90;5.67;;;25.70;99.90;;;;;;4976141;28;20540;-57
2021/06/13 10:48:18;;;;;;;5.63;5.13;;;25.70;99.90;;;;;;4983957;28;20450;-57
2021/06/13 10:50:46;;;;;;;6.50;5.90;;;26.10;99.90;;;;;;4994214;28;20461;-56
2021/06/13 10:53:13;;;;;;;6.63;5.90;;;26.00;99.90;;;;;;4993952;28;20883;-57
2021/06/13 10:55:48;;;;;;;5.80;5.30;;;25.20;99.90;;;;;;5014682;28;20450;-57
2021/06/13 10:58:45;;;;;;;5.53;5.03;;;25.40;99.90;;;;;;5006601;28;20486;-57
2021/06/13 11:01:26;;;;;;;7.20;6.50;;;25.80;99.90;;;;;;4992401;28;20553;-57
2021/06/13 11:04:01;;;;;;;8.40;7.17;;;25.80;99.90;;;;;;4988625;28;21021;-57
2021/06/13 11:06:42;;;;;;;7.00;6.30;;;25.80;99.90;;;;;;4994884;28;20452;-57
2021/06/13 11:09:11;;;;;;;10.57;5.73;;;25.30;99.90;;;;;;4993933;28;20485;-57
2021/06/13 11:11:39;;;;;;;9.10;7.13;;;25.40;99.90;;;;;;4991645;28;20489;-56
2021/06/13 11:14:25;;;;;;;7.10;6.50;;;25.30;99.90;;;;;;4979820;28;20454;-57
2021/06/13 11:16:56;;;;;;;7.13;6.40;;;25.80;99.90;;;;;;4984504;28;20446;-56
2021/06/13 11:19:28;;;;;;;6.33;5.73;;;25.80;99.90;;;;;;4992568;28;20955;-57
2021/06/13 11:22:32;;;;;;;6.73;6.03;;;25.40;99.90;;;;;;4994419;28;20835;-57
2021/06/13 11:25:00;;;;;;;6.00;5.17;;;24.80;99.90;;;;;;4994661;28;20896;-57
2021/06/13 11:27:30;;;;;;;5.40;4.90;;;24.90;99.90;;;;;;4992892;28;20960;-57
2021/06/13 11:29:59;;;;;;;6.20;5.30;;;25.20;99.90;;;;;;4993290;28;20457;-56
2021/06/13 11:32:53;;;;;;;7.00;5.70;;;24.70;99.90;;;;;;4985729;28;20477;-56
2021/06/13 11:35:28;;;;;;;6.07;5.20;;;24.90;99.90;;;;;;4976031;28;20466;-56
2021/06/13 11:38:27;;;;;;;5.20;4.70;;;25.00;99.90;;;;;;4993348;28;21000;-57
2021/06/13 11:40:57;;;;;;;5.57;4.90;;;25.10;99.90;;;;;;4993973;28;20455;-56
2021/06/13 11:43:30;;;;;;;4.13;3.80;;;25.20;99.90;;;;;;4994022;28;20838;-56
2021/06/13 11:46:00;;;;;;;5.20;4.80;;;25.00;99.90;;;;;;4994180;28;20458;-56
2021/06/13 11:48:30;;;;;;;4.90;4.30;;;24.70;99.90;;;;;;4993901;28;20454;-57
2021/06/13 11:51:10;;;;;;;6.90;5.10;;;24.70;99.90;;;;;;4994287;28;20450;-57
2021/06/13 11:53:55;;;;;;;7.10;5.10;;;24.80;99.90;;;;;;4994451;28;20461;-57
2021/06/13 11:56:44;;;;;;;6.13;5.53;;;24.80;99.90;;;;;;4992103;28;20525;-57
2021/06/13 11:59:19;;;;;;;8.77;6.27;;;25.00;99.90;;;;;;4992068;28;20496;-57
2021/06/13 12:01:54;;;;;;;7.23;6.53;;;25.10;99.90;;;;;;4980933;28;20991;-57
2021/06/13 12:04:22;;;;;;;8.40;6.40;;;24.80;99.90;;;;;;4993763;28;20461;-58
2021/06/13 12:06:51;;;;;;;6.30;5.70;;;25.00;99.90;;;;;;4992349;28;20454;-57
2021/06/13 12:09:22;;;;;;;5.70;5.20;;;25.10;99.90;;;;;;4993066;28;20458;-57
2021/06/13 12:11:51;;;;;;;5.80;5.30;;;25.40;99.90;;;;;;4992853;28;20493;-57
2021/06/13 12:14:30;;;;;;;4.80;4.40;;;25.00;99.90;;;;;;4993055;28;20460;-57
2021/06/13 12:17:00;;;;;;;5.17;4.67;;;25.10;99.90;;;;;;4993692;28;20461;-58
2021/06/13 12:19:35;;;;;;;5.80;4.37;;;25.50;99.90;;;;;;4995035;28;20489;-56
2021/06/13 12:22:33;;;;;;;5.80;4.50;;;25.10;99.90;;;;;;4992807;28;20987;-57
2021/06/13 12:27:48;;;;;;;4.60;4.20;;;25.30;99.90;;;;;;4993043;28;20476;-56
2021/06/13 12:30:18;;;;;;;4.30;4.00;;;25.30;99.90;;;;;;4992985;28;20525;-57
2021/06/13 12:32:54;;;;;;;3.80;3.50;;;25.50;99.90;;;;;;4987869;28;20493;-58
2021/06/13 12:35:27;;;;;;;5.80;4.73;;;25.50;99.90;;;;;;4989671;28;20958;-57
2021/06/13 12:38:03;;;;;;;7.10;4.50;;;25.30;99.90;;;;;;4979855;28;20493;-57
2021/06/13 12:40:31;;;;;;;4.60;4.20;;;25.50;99.90;;;;;;4991941;28;20577;-57
2021/06/13 12:42:58;;;;;;;4.60;4.30;;;25.60;99.90;;;;;;4976711;28;20478;-57
2021/06/13 12:45:25;;;;;;;5.67;5.17;;;25.40;99.90;;;;;;4991759;28;20815;-58
2021/06/13 12:47:56;;;;;;;6.80;6.10;;;25.10;99.90;;;;;;4992726;28;21026;-56
2021/06/13 12:50:27;;;;;;;4.83;4.40;;;25.10;99.90;;;;;;4993180;28;20446;-57
2021/06/13 12:52:56;;;;;;;9.33;4.83;;;24.90;99.90;;;;;;5017271;22;20494;-52
2021/06/13 12:55:23;;;;;;;5.27;4.87;;;25.00;99.90;;;;;;5032917;28;20522;-50
2021/06/13 12:57:52;;;;;;;5.30;4.67;;;25.10;99.90;;;;;;5033939;28;20484;-51
2021/06/13 13:00:21;;;;;;;4.20;3.80;;;25.40;99.90;;;;;;5035924;28;20456;-51
2021/06/13 13:03:03;;;;;;;4.87;4.47;;;25.10;99.90;;;;;;5038036;28;20954;-51